createdAt,value
2019-05-19T00:02:56.349Z,93895.66
2019-05-19T00:07:58.043Z,93899.83
2019-05-19T00:12:59.774Z,93897.68
2019-05-19T00:18:01.741Z,93895.66
2019-05-19T00:23:03.647Z,93898.36
2019-05-19T00:28:05.628Z,93900.36
2019-05-19T00:33:07.782Z,93891.09
2019-05-19T00:38:09.403Z,93894.69
2019-05-19T00:43:11.282Z,93890.67
2019-05-19T00:48:13.129Z,93884.88
2019-05-19T00:53:15.198Z,93884.34
2019-05-19T00:58:16.883Z,93896.31
2019-05-19T01:03:18.805Z,93896.86
2019-05-19T01:08:20.862Z,93892.55
2019-05-19T01:13:22.858Z,93897.80
2019-05-19T01:18:24.917Z,93896.71
2019-05-19T01:23:26.912Z,93891.77
2019-05-19T01:28:28.689Z,93895.41
2019-05-19T01:33:30.688Z,93896.47
2019-05-19T01:38:32.564Z,93896.16
2019-05-19T01:43:35.134Z,93902.50
2019-05-19T01:48:36.835Z,93915.09
2019-05-19T01:53:39.555Z,93910.48
2019-05-19T01:58:41.288Z,93912.63
2019-05-19T02:03:43.051Z,93924.88
2019-05-19T02:08:46.651Z,93934.44
2019-05-19T02:13:48.643Z,93938.66
2019-05-19T02:18:50.406Z,93939.16
2019-05-19T02:23:52.104Z,93940.34
2019-05-19T02:28:53.866Z,93933.63
2019-05-19T02:33:55.833Z,93945.72
2019-05-19T02:38:57.697Z,93952.42
2019-05-19T02:43:59.812Z,93947.13
2019-05-19T02:49:01.602Z,93949.65
2019-05-19T02:54:04.114Z,93955.07
2019-05-19T02:59:06.089Z,93950.45
2019-05-19T03:04:07.806Z,93939.50
2019-05-19T03:09:09.604Z,93948.56
2019-05-19T03:14:11.156Z,93946.73
2019-05-19T03:19:12.863Z,93948.21
2019-05-19T03:24:14.521Z,93942.77
2019-05-19T03:29:16.055Z,93945.39
2019-05-19T03:34:17.620Z,93941.41
2019-05-19T03:39:19.096Z,93951.54
2019-05-19T03:44:21.369Z,93964.33
2019-05-19T03:49:23.018Z,93970.79
2019-05-19T03:54:24.451Z,93968.52
2019-05-19T03:59:25.856Z,93963.16
2019-05-19T04:04:27.318Z,93961.94
2019-05-19T04:09:28.741Z,93966.33
2019-05-19T04:14:30.148Z,93963.25
2019-05-19T04:19:31.655Z,93967.59
2019-05-19T04:24:34.344Z,93973.92
2019-05-19T04:29:39.227Z,93971.23
2019-05-19T04:34:38.226Z,93975.83
2019-05-19T04:39:39.845Z,93986.64
2019-05-19T04:44:41.544Z,93984.91
2019-05-19T04:49:43.148Z,93986.02
2019-05-19T04:54:53.380Z,93986.31
2019-05-19T04:59:55.175Z,93989.09
2019-05-19T05:04:57.118Z,93988.34
2019-05-19T05:09:58.928Z,93988.83
2019-05-19T05:15:00.769Z,93985.27
2019-05-19T05:20:02.384Z,93981.95
2019-05-19T05:25:06.091Z,93988.98
2019-05-19T05:30:07.849Z,93990.19
2019-05-19T05:35:09.406Z,93982.95
2019-05-19T05:40:10.917Z,93981.80
2019-05-19T05:45:13.204Z,93994.16
2019-05-19T05:50:14.662Z,93988.11
2019-05-19T05:55:16.181Z,93989.91
2019-05-19T06:00:17.636Z,93998.39
2019-05-19T06:05:19.084Z,94001.30
2019-05-19T06:10:22.164Z,94001.02
2019-05-19T06:15:23.817Z,93991.46
2019-05-19T06:20:25.522Z,93987.37
2019-05-19T06:25:27.756Z,93990.50
2019-05-19T06:30:29.123Z,94002.20
2019-05-19T06:35:30.637Z,93993.20
2019-05-19T06:40:32.108Z,93999.89
2019-05-19T06:45:33.791Z,94008.58
2019-05-19T06:50:35.618Z,93993.13
2019-05-19T06:55:37.746Z,94009.25
2019-05-19T07:00:39.186Z,93997.67
2019-05-19T07:05:40.806Z,93986.05
2019-05-19T07:10:42.473Z,93990.55
2019-05-19T07:15:44.023Z,93975.09
2019-05-19T07:20:46.512Z,93974.03
2019-05-19T07:25:49.130Z,93968.56
2019-05-19T07:30:50.806Z,93975.05
2019-05-19T07:35:52.482Z,93967.20
2019-05-19T07:40:54.074Z,93969.78
2019-05-19T07:45:56.673Z,93973.53
2019-05-19T07:50:58.696Z,93975.84
2019-05-19T07:56:00.846Z,93965.35
2019-05-19T08:01:02.491Z,93965.58
2019-05-19T08:06:04.045Z,93970.80
2019-05-19T08:11:06.150Z,93968.27
2019-05-19T08:16:07.817Z,93976.06
2019-05-19T08:21:09.450Z,93974.02
2019-05-19T08:26:12.178Z,93979.14
2019-05-19T08:31:13.665Z,93980.77
2019-05-19T08:36:15.161Z,93991.66
2019-05-19T08:41:16.663Z,93979.27
2019-05-19T08:46:18.097Z,93979.73
2019-05-19T08:51:19.417Z,93975.62
2019-05-19T08:56:21.582Z,93974.33
2019-05-19T09:01:23.156Z,93978.78
2019-05-19T09:06:24.764Z,93972.09
2019-05-19T09:11:26.866Z,93968.86
2019-05-19T09:16:28.637Z,93972.03
2019-05-19T09:21:30.376Z,93972.57
2019-05-19T09:26:32.279Z,93964.45
2019-05-19T09:31:33.874Z,93956.86
2019-05-19T09:36:36.432Z,93950.50
2019-05-19T09:41:37.947Z,93944.00
2019-05-19T09:46:40.560Z,93941.63
2019-05-19T09:56:59.395Z,93932.98
2019-05-19T10:02:01.177Z,93927.50
2019-05-19T10:07:05.205Z,93926.80
2019-05-19T10:12:05.869Z,93917.84
2019-05-19T10:17:07.216Z,93914.53
2019-05-19T10:22:08.590Z,93914.51
2019-05-19T10:27:09.933Z,93913.58
2019-05-19T10:32:11.287Z,93904.51
2019-05-19T10:37:12.626Z,93908.28
2019-05-19T10:42:13.957Z,93905.95
2019-05-19T10:47:15.307Z,93899.42
2019-05-19T10:52:16.637Z,93889.24
2019-05-19T10:57:17.974Z,93889.55
2019-05-19T11:02:19.300Z,93888.03
2019-05-19T11:07:20.714Z,93880.20
2019-05-19T11:12:22.813Z,93878.42
2019-05-19T11:17:24.136Z,93872.03
2019-05-19T11:22:25.434Z,93870.31
2019-05-19T11:27:27.547Z,93865.20
2019-05-19T11:32:28.890Z,93869.36
2019-05-19T11:37:30.215Z,93853.90
2019-05-19T11:42:31.593Z,93851.83
2019-05-19T11:47:33.680Z,93844.48
2019-05-19T11:52:35.009Z,93846.56
2019-05-19T11:57:36.373Z,93840.08
2019-05-19T12:02:37.746Z,93849.54
2019-05-19T12:07:39.082Z,93834.58
2019-05-19T12:12:41.827Z,93840.84
2019-05-19T12:17:43.495Z,93843.00
2019-05-19T12:22:46.195Z,93837.87
2019-05-19T12:27:48.873Z,93836.33
2019-05-19T12:32:50.553Z,93827.37
2019-05-19T12:37:52.334Z,93817.92
2019-05-19T12:42:55.333Z,93824.87
2019-05-19T12:47:56.903Z,93824.83
2019-05-19T12:52:58.896Z,93804.81
2019-05-19T12:58:01.420Z,93804.39
2019-05-19T13:03:02.936Z,93802.91
2019-05-19T13:08:05.325Z,93798.69
2019-05-19T13:13:06.681Z,93794.30
2019-05-19T13:18:07.986Z,93792.42
2019-05-19T13:23:10.049Z,93776.92
2019-05-19T13:28:12.137Z,93773.63
2019-05-19T13:33:14.214Z,93772.53
2019-05-19T13:38:15.569Z,93766.98
2019-05-19T13:43:26.345Z,93764.80
2019-05-19T13:48:24.865Z,93762.12
2019-05-19T13:53:27.010Z,93752.95
2019-05-19T13:58:28.805Z,93744.01
2019-05-19T14:03:30.166Z,93753.05
2019-05-19T14:08:31.477Z,93746.86
2019-05-19T14:13:32.789Z,93737.79
2019-05-19T14:18:34.151Z,93725.55
2019-05-19T14:23:35.741Z,93721.75
2019-05-19T14:28:37.116Z,93721.47
2019-05-19T14:33:38.436Z,93733.56
2019-05-19T14:38:49.078Z,93729.91
2019-05-19T14:43:51.163Z,93723.48
2019-05-19T14:48:52.473Z,93722.06
2019-05-19T14:53:53.867Z,93723.20
2019-05-19T14:58:55.200Z,93718.95
2019-05-19T15:03:56.552Z,93721.98
2019-05-19T15:08:57.952Z,93725.36
2019-05-19T15:14:00.045Z,93724.64
2019-05-19T15:19:01.426Z,93727.48
2019-05-19T15:24:02.773Z,93724.48
2019-05-19T15:29:04.175Z,93716.48
2019-05-19T15:34:05.451Z,93718.43
2019-05-19T15:39:06.781Z,93718.67
2019-05-19T15:44:08.879Z,93717.72
2019-05-19T15:49:10.216Z,93704.52
2019-05-19T15:54:11.530Z,93704.08
2019-05-19T15:59:12.895Z,93706.05
2019-05-19T16:04:14.257Z,93707.11
2019-05-19T16:09:15.548Z,93697.08
2019-05-19T16:14:16.905Z,93700.80
2019-05-19T16:19:18.258Z,93695.93
2019-05-19T16:24:19.643Z,93696.16
2019-05-19T16:29:21.514Z,93705.16
2019-05-19T16:34:22.839Z,93709.07
2019-05-19T16:39:24.156Z,93705.63
2019-05-19T16:44:25.474Z,93704.66
2019-05-19T16:49:26.781Z,93708.66
2019-05-19T16:54:28.104Z,93714.88
2019-05-19T16:59:29.462Z,93722.23
2019-05-19T17:04:30.793Z,93719.95
2019-05-19T17:09:34.408Z,93717.43
2019-05-19T17:14:39.672Z,93729.45
2019-05-19T17:19:44.141Z,93732.66
2019-05-19T17:24:48.338Z,93740.93
2019-05-19T17:29:53.645Z,93740.16
2019-05-19T17:34:55.020Z,93739.64
2019-05-19T17:39:58.915Z,93746.22
2019-05-19T17:45:01.841Z,93745.32
2019-05-19T17:50:03.178Z,93744.88
2019-05-19T17:55:04.567Z,93753.13
2019-05-19T18:00:05.931Z,93763.58
2019-05-19T18:05:07.275Z,93773.53
2019-05-19T18:10:08.603Z,93772.06
2019-05-19T18:15:13.445Z,93771.17
2019-05-19T18:20:23.390Z,93758.44
2019-05-19T18:25:16.167Z,93769.97
2019-05-19T18:30:17.482Z,93775.72
2019-05-19T18:35:18.840Z,93780.61
2019-05-19T18:40:20.197Z,93782.52
2019-05-19T18:45:22.307Z,93783.63
2019-05-19T18:50:23.657Z,93803.33
2019-05-19T18:55:25.356Z,93836.55
2019-05-19T19:00:31.025Z,93860.63
2019-05-19T19:05:32.757Z,93887.48
2019-05-19T19:10:35.046Z,93892.11
2019-05-19T19:15:36.748Z,93904.21
2019-05-19T19:20:38.239Z,93909.30
2019-05-19T19:25:39.878Z,93916.76
2019-05-19T19:30:42.940Z,93920.53
2019-05-19T19:35:46.803Z,93929.64
2019-05-19T19:40:49.353Z,93930.22
2019-05-19T19:45:52.168Z,93933.10
2019-05-19T19:57:00.425Z,93921.83
2019-05-19T20:01:59.760Z,93922.48
2019-05-19T20:07:02.529Z,93912.13
2019-05-19T20:12:04.703Z,93911.23
2019-05-19T20:17:06.485Z,93909.70
2019-05-19T20:22:08.099Z,93913.91
2019-05-19T20:27:10.046Z,93896.22
2019-05-19T20:32:11.653Z,93890.05
2019-05-19T20:37:15.228Z,93872.25
2019-05-19T20:42:15.481Z,93899.55
2019-05-19T20:47:17.713Z,93920.90
2019-05-19T20:52:19.256Z,93919.34
2019-05-19T20:57:20.613Z,93920.63
2019-05-19T21:02:22.318Z,93908.54
2019-05-19T21:07:24.053Z,93875.35
2019-05-19T21:12:25.618Z,93888.55
2019-05-19T21:17:28.042Z,93897.94
2019-05-19T21:22:29.556Z,93903.98
2019-05-19T21:27:30.957Z,93902.47
2019-05-19T21:32:32.585Z,93905.63
2019-05-19T21:37:34.058Z,93904.42
2019-05-19T21:42:35.734Z,93905.20
2019-05-19T21:47:37.619Z,93897.66
2019-05-19T21:52:39.455Z,93887.19
2019-05-19T21:57:41.329Z,93891.63
2019-05-19T22:02:43.421Z,93884.64
2019-05-19T22:13:13.649Z,93869.32
2019-05-19T22:18:16.905Z,93867.30
2019-05-19T22:23:18.630Z,93865.13
2019-05-19T22:28:21.425Z,93839.37
2019-05-19T22:33:24.848Z,93841.91
2019-05-19T22:38:27.953Z,93844.88
2019-05-19T22:43:29.764Z,93838.91
2019-05-19T22:48:32.921Z,93855.14
2019-05-19T22:53:35.311Z,93860.83
2019-05-19T22:58:37.914Z,93864.87
2019-05-19T23:03:39.816Z,93868.92
2019-05-19T23:08:42.671Z,93868.77
2019-05-19T23:13:44.560Z,93870.11
2019-05-19T23:18:48.237Z,93869.84
2019-05-19T23:23:50.108Z,93869.05
2019-05-19T23:28:51.999Z,93868.79
2019-05-19T23:33:54.060Z,93878.73
2019-05-19T23:38:56.036Z,93885.59
2019-05-19T23:43:58.140Z,93895.80
2019-05-19T23:49:00.320Z,93890.69
2019-05-19T23:54:02.499Z,93884.10
2019-05-19T23:59:04.493Z,93888.95
